Etusivu
METAR-TAF:

METAR-TAF

Lentoasemat :

Warsaw Municipal Airport

Warsaw, Indiana, Yhdysvallat

Leveyspiiri: 41-16-28N, Pituuspiiri: 085-50-24W, korkeus merenpinnasta: 259 m

Tämänhetkinen sää

Tämä raportti tehtiin 11 minuuttia sitten, kello 12.15 UTC
Tuuli 4 kn pohjoisen/luoteesta
Lämpötila 3°C
Kosteus 93%
Ilmanpaine 1017 hPa
Näkyvyys: 16.1 km
Hajonneita pilviä 1000 ft:n korkeudessa
Hajonneita pilviä 1400 ft:n korkeudessa
Pilvistä 3100 ft:n korkeudessa

METAR: KASW 011215Z AUTO 33004KT 10SM BKN010 BKN014 OVC031 03/02 A3002 RMK AO2

Aika: 08:26 (12:26 UTC)


TAF: puuttuu

Säähavainnot ja -ennusteet yli 4000 lentoasemalta (METAR- ja TAF-raportit).

Käytössä olevat sääasemat on merkitty karttaan keltaisilla ja punaisilla pisteillä.

Aseta hiiri pisteen päälle nähdäksesi sääaseman nimen.

Klikkaa sitten nähdäksesi säähavainnot ja -ennusteet.

Kartan vaihtaminen: klikkaa mustalla rastilla varustettuja vihreitä pisteitä, niin voit zoomata sisään; viivalla varustettua vihreää pistettä, niin voit zoomata ulos tai vihreitä nuolia, niin pääset viereisille kartoille.


METAR-TAF: